B3355 ZBTJ-ZBTJ
Flight info
| Callsign | B3355 |
|---|---|
| Flight time | 0h 37m |
| Altitude | 1000 |
| Route | LOCAL |
| Aircraft | DA42/L-SBDE1E2E3FGHIJ1J4J5J7M3RWXYZ/LB1V1D1 |
Departure
| Time | 2026-04-14 03:23 |
|---|---|
| Airport | Tianjin Binhai International Airport (ZBTJ) |
Arrival
| Time | 2026-04-14 04:01 |
|---|---|
| Airport | Tianjin Binhai International Airport (ZBTJ) |
| Time | Latitude | Longitude | Altitude | Speed | Heading |
|---|---|---|---|---|---|
| 2026-04-14 03:08 | 39.12437 | 117.36272 | 13 ft | 0 kts | 153° |
| 2026-04-14 03:15 | 39.12409 | 117.36289 | 13 ft | 8 kts | 154° |
| 2026-04-14 03:16 | 39.12402 | 117.36362 | 13 ft | 12 kts | 64° |
| 2026-04-14 03:16 | 39.12440 | 117.36465 | 13 ft | 13 kts | 65° |
| 2026-04-14 03:16 | 39.12487 | 117.36551 | 13 ft | 10 kts | 17° |
| 2026-04-14 03:16 | 39.12549 | 117.36533 | 13 ft | 11 kts | 349° |
| 2026-04-14 03:17 | 39.12625 | 117.36588 | 13 ft | 18 kts | 64° |
| 2026-04-14 03:17 | 39.12757 | 117.36865 | 13 ft | 13 kts | 13° |
| 2026-04-14 03:17 | 39.12835 | 117.36832 | 13 ft | 17 kts | 329° |
| 2026-04-14 03:18 | 39.12987 | 117.36737 | 13 ft | 29 kts | 333° |
| 2026-04-14 03:18 | 39.13159 | 117.36630 | 13 ft | 24 kts | 334° |
| 2026-04-14 03:18 | 39.13300 | 117.36544 | 13 ft | 23 kts | 334° |
| 2026-04-14 03:18 | 39.13453 | 117.36449 | 13 ft | 24 kts | 334° |
| 2026-04-14 03:19 | 39.13591 | 117.36365 | 14 ft | 18 kts | 334° |
| 2026-04-14 03:19 | 39.13699 | 117.36298 | 16 ft | 17 kts | 333° |
| 2026-04-14 03:19 | 39.13806 | 117.36231 | 16 ft | 17 kts | 333° |
| 2026-04-14 03:19 | 39.13911 | 117.36170 | 14 ft | 15 kts | 336° |
| 2026-04-14 03:20 | 39.14008 | 117.36112 | 13 ft | 16 kts | 342° |
| 2026-04-14 03:20 | 39.14086 | 117.36128 | 13 ft | 8 kts | 70° |
| 2026-04-14 03:20 | 39.14095 | 117.36160 | 13 ft | 0 kts | 65° |
| 2026-04-14 03:21 | 39.14105 | 117.36189 | 13 ft | 10 kts | 67° |
| 2026-04-14 03:21 | 39.14088 | 117.36292 | 15 ft | 11 kts | 153° |
| 2026-04-14 03:21 | 39.14079 | 117.36298 | 15 ft | 0 kts | 157° |
| 2026-04-14 03:21 | 39.14041 | 117.36320 | 15 ft | 22 kts | 151° |
| 2026-04-14 03:22 | 39.13760 | 117.36493 | 16 ft | 65 kts | 152° |
| 2026-04-14 03:22 | 39.13342 | 117.36749 | 148 ft | 68 kts | 153° |
| 2026-04-14 03:22 | 39.12907 | 117.37000 | 277 ft | 69 kts | 157° |
| 2026-04-14 03:22 | 39.12468 | 117.37260 | 389 ft | 71 kts | 153° |
| 2026-04-14 03:23 | 39.12005 | 117.37531 | 482 ft | 75 kts | 153° |
| 2026-04-14 03:23 | 39.11539 | 117.37796 | 598 ft | 74 kts | 153° |
| 2026-04-14 03:23 | 39.11055 | 117.38066 | 688 ft | 78 kts | 157° |
| 2026-04-14 03:23 | 39.10484 | 117.38405 | 717 ft | 98 kts | 155° |
| 2026-04-14 03:24 | 39.09840 | 117.38779 | 859 ft | 103 kts | 155° |
| 2026-04-14 03:24 | 39.09174 | 117.39163 | 1009 ft | 106 kts | 156° |
| 2026-04-14 03:24 | 39.08466 | 117.39576 | 1045 ft | 116 kts | 156° |
| 2026-04-14 03:24 | 39.07717 | 117.40028 | 1034 ft | 122 kts | 156° |
| 2026-04-14 03:25 | 39.06943 | 117.40494 | 1040 ft | 123 kts | 155° |
| 2026-04-14 03:25 | 39.06153 | 117.40965 | 1000 ft | 125 kts | 155° |
| 2026-04-14 03:25 | 39.05369 | 117.41434 | 988 ft | 123 kts | 156° |
| 2026-04-14 03:25 | 39.04601 | 117.41910 | 984 ft | 122 kts | 154° |
| 2026-04-14 03:26 | 39.03885 | 117.42484 | 961 ft | 123 kts | 131° |
| 2026-04-14 03:26 | 39.03623 | 117.43507 | 968 ft | 122 kts | 90° |
| 2026-04-14 03:26 | 39.03958 | 117.44499 | 971 ft | 125 kts | 50° |
| 2026-04-14 03:26 | 39.04662 | 117.45152 | 992 ft | 124 kts | 35° |
| 2026-04-14 03:27 | 39.05407 | 117.45729 | 993 ft | 124 kts | 36° |
| 2026-04-14 03:27 | 39.06129 | 117.46338 | 990 ft | 124 kts | 39° |
| 2026-04-14 03:27 | 39.06938 | 117.46705 | 976 ft | 126 kts | 6° |
| 2026-04-14 03:27 | 39.07809 | 117.46513 | 976 ft | 128 kts | 341° |
| 2026-04-14 03:28 | 39.08612 | 117.46026 | 988 ft | 127 kts | 335° |
| 2026-04-14 03:28 | 39.09403 | 117.45492 | 982 ft | 127 kts | 336° |
| 2026-04-14 03:28 | 39.10179 | 117.44966 | 985 ft | 126 kts | 336° |
| 2026-04-14 03:28 | 39.10952 | 117.44433 | 985 ft | 126 kts | 334° |
| 2026-04-14 03:29 | 39.11727 | 117.43906 | 990 ft | 126 kts | 335° |
| 2026-04-14 03:29 | 39.12506 | 117.43373 | 988 ft | 127 kts | 334° |
| 2026-04-14 03:29 | 39.13294 | 117.42841 | 988 ft | 128 kts | 334° |
| 2026-04-14 03:29 | 39.14089 | 117.42320 | 991 ft | 129 kts | 336° |
| 2026-04-14 03:30 | 39.14898 | 117.41793 | 988 ft | 129 kts | 335° |
| 2026-04-14 03:30 | 39.15700 | 117.41263 | 990 ft | 129 kts | 335° |
| 2026-04-14 03:30 | 39.16494 | 117.40737 | 985 ft | 129 kts | 336° |
| 2026-04-14 03:30 | 39.17293 | 117.40215 | 985 ft | 129 kts | 335° |
| 2026-04-14 03:31 | 39.18105 | 117.39683 | 983 ft | 130 kts | 335° |
| 2026-04-14 03:31 | 39.18901 | 117.39153 | 986 ft | 129 kts | 335° |
| 2026-04-14 03:31 | 39.19700 | 117.38619 | 984 ft | 130 kts | 335° |
| 2026-04-14 03:31 | 39.20513 | 117.38088 | 984 ft | 130 kts | 334° |
| 2026-04-14 03:32 | 39.21312 | 117.37570 | 987 ft | 130 kts | 335° |
| 2026-04-14 03:32 | 39.21922 | 117.36734 | 963 ft | 129 kts | 292° |
| 2026-04-14 03:32 | 39.21974 | 117.35628 | 962 ft | 124 kts | 253° |
| 2026-04-14 03:32 | 39.21669 | 117.34606 | 981 ft | 121 kts | 246° |
| 2026-04-14 03:33 | 39.21281 | 117.33649 | 970 ft | 120 kts | 227° |
| 2026-04-14 03:33 | 39.20561 | 117.33168 | 898 ft | 122 kts | 193° |
| 2026-04-14 03:33 | 39.19802 | 117.33046 | 908 ft | 97 kts | 182° |
| 2026-04-14 03:33 | 39.19153 | 117.33106 | 851 ft | 91 kts | 168° |
| 2026-04-14 03:34 | 39.18014 | 117.33766 | 685 ft | 90 kts | 149° |
| 2026-04-14 03:34 | 39.17440 | 117.34171 | 553 ft | 94 kts | 152° |
| 2026-04-14 03:34 | 39.16874 | 117.34547 | 480 ft | 91 kts | 158° |
| 2026-04-14 03:35 | 39.16296 | 117.34878 | 409 ft | 89 kts | 154° |
| 2026-04-14 03:35 | 39.15721 | 117.35250 | 325 ft | 93 kts | 152° |
| 2026-04-14 03:35 | 39.15147 | 117.35626 | 243 ft | 94 kts | 155° |
| 2026-04-14 03:35 | 39.14564 | 117.35989 | 162 ft | 92 kts | 155° |
| 2026-04-14 03:36 | 39.13988 | 117.36352 | 54 ft | 91 kts | 155° |
| 2026-04-14 03:36 | 39.13447 | 117.36686 | 13 ft | 78 kts | 154° |
| 2026-04-14 03:36 | 39.12918 | 117.37022 | 89 ft | 87 kts | 152° |
| 2026-04-14 03:36 | 39.12377 | 117.37360 | 209 ft | 87 kts | 153° |
| 2026-04-14 03:37 | 39.11817 | 117.37698 | 310 ft | 89 kts | 154° |
| 2026-04-14 03:37 | 39.11263 | 117.38036 | 417 ft | 89 kts | 153° |
| 2026-04-14 03:37 | 39.10696 | 117.38370 | 527 ft | 88 kts | 155° |
| 2026-04-14 03:37 | 39.10135 | 117.38705 | 614 ft | 91 kts | 154° |
| 2026-04-14 03:38 | 39.09662 | 117.39223 | 700 ft | 90 kts | 117° |
| 2026-04-14 03:38 | 39.09600 | 117.40009 | 777 ft | 93 kts | 79° |
| 2026-04-14 03:38 | 39.09975 | 117.40662 | 851 ft | 92 kts | 37° |
| 2026-04-14 03:38 | 39.10530 | 117.41094 | 926 ft | 90 kts | 47° |
| 2026-04-14 03:39 | 39.10905 | 117.41724 | 991 ft | 89 kts | 59° |
| 2026-04-14 03:39 | 39.11283 | 117.42467 | 925 ft | 108 kts | 61° |
| 2026-04-14 03:39 | 39.11830 | 117.43107 | 985 ft | 113 kts | 25° |
| 2026-04-14 03:39 | 39.12638 | 117.43143 | 1003 ft | 120 kts | 345° |
| 2026-04-14 03:40 | 39.13411 | 117.42716 | 1025 ft | 122 kts | 336° |
| 2026-04-14 03:40 | 39.14173 | 117.42219 | 1013 ft | 126 kts | 335° |
| 2026-04-14 03:40 | 39.14963 | 117.41711 | 1025 ft | 125 kts | 335° |
| 2026-04-14 03:40 | 39.15752 | 117.41190 | 1006 ft | 127 kts | 335° |
| 2026-04-14 03:41 | 39.16540 | 117.40659 | 1005 ft | 128 kts | 334° |
| 2026-04-14 03:41 | 39.17324 | 117.40136 | 992 ft | 128 kts | 335° |
| 2026-04-14 03:41 | 39.18115 | 117.39603 | 990 ft | 128 kts | 334° |
| 2026-04-14 03:41 | 39.18917 | 117.39066 | 988 ft | 129 kts | 331° |
| 2026-04-14 03:42 | 39.19431 | 117.38197 | 1130 ft | 104 kts | 285° |
| 2026-04-14 03:42 | 39.19392 | 117.37266 | 960 ft | 107 kts | 250° |
| 2026-04-14 03:42 | 39.19130 | 117.36439 | 951 ft | 97 kts | 246° |
| 2026-04-14 03:42 | 39.18858 | 117.35664 | 966 ft | 91 kts | 244° |
| 2026-04-14 03:43 | 39.18605 | 117.34926 | 962 ft | 90 kts | 245° |
| 2026-04-14 03:43 | 39.18242 | 117.34294 | 962 ft | 87 kts | 212° |
| 2026-04-14 03:43 | 39.17644 | 117.34145 | 833 ft | 96 kts | 176° |
| 2026-04-14 03:43 | 39.16980 | 117.34356 | 677 ft | 100 kts | 158° |
| 2026-04-14 03:44 | 39.16362 | 117.34765 | 522 ft | 101 kts | 150° |
| 2026-04-14 03:44 | 39.15765 | 117.35229 | 396 ft | 98 kts | 153° |
| 2026-04-14 03:44 | 39.15157 | 117.35627 | 264 ft | 99 kts | 155° |
| 2026-04-14 03:44 | 39.14540 | 117.36015 | 152 ft | 95 kts | 153° |
| 2026-04-14 03:45 | 39.13946 | 117.36382 | 35 ft | 94 kts | 153° |
| 2026-04-14 03:45 | 39.13398 | 117.36716 | 13 ft | 80 kts | 154° |
| 2026-04-14 03:45 | 39.12860 | 117.37057 | 80 ft | 87 kts | 155° |
| 2026-04-14 03:45 | 39.12304 | 117.37384 | 184 ft | 88 kts | 155° |
| 2026-04-14 03:46 | 39.11749 | 117.37714 | 295 ft | 87 kts | 154° |
| 2026-04-14 03:46 | 39.11200 | 117.38073 | 388 ft | 88 kts | 148° |
| 2026-04-14 03:46 | 39.10876 | 117.38722 | 463 ft | 89 kts | 102° |
| 2026-04-14 03:46 | 39.10979 | 117.39508 | 550 ft | 90 kts | 70° |
| 2026-04-14 03:47 | 39.11269 | 117.40234 | 653 ft | 90 kts | 65° |
| 2026-04-14 03:47 | 39.11568 | 117.40937 | 748 ft | 91 kts | 65° |
| 2026-04-14 03:47 | 39.11880 | 117.41650 | 842 ft | 93 kts | 61° |
| 2026-04-14 03:47 | 39.12485 | 117.42213 | 810 ft | 118 kts | 19° |
| 2026-04-14 03:48 | 39.13306 | 117.42139 | 922 ft | 122 kts | 342° |
| 2026-04-14 03:48 | 39.14080 | 117.41670 | 1043 ft | 123 kts | 336° |
| 2026-04-14 03:48 | 39.14837 | 117.41161 | 1160 ft | 124 kts | 335° |
| 2026-04-14 03:48 | 39.15613 | 117.40649 | 1277 ft | 125 kts | 335° |
| 2026-04-14 03:49 | 39.16386 | 117.40134 | 1385 ft | 126 kts | 335° |
| 2026-04-14 03:49 | 39.17169 | 117.39610 | 1497 ft | 126 kts | 335° |
| 2026-04-14 03:49 | 39.17976 | 117.39081 | 1486 ft | 135 kts | 335° |
| 2026-04-14 03:49 | 39.18854 | 117.38513 | 1310 ft | 147 kts | 336° |
| 2026-04-14 03:50 | 39.19732 | 117.37813 | 1049 ft | 153 kts | 316° |
| 2026-04-14 03:50 | 39.20160 | 117.36613 | 806 ft | 144 kts | 275° |
| 2026-04-14 03:50 | 39.19992 | 117.35442 | 795 ft | 129 kts | 248° |
| 2026-04-14 03:50 | 39.19642 | 117.34420 | 770 ft | 122 kts | 240° |
| 2026-04-14 03:51 | 39.19010 | 117.33759 | 719 ft | 116 kts | 196° |
| 2026-04-14 03:51 | 39.18198 | 117.33689 | 579 ft | 119 kts | 169° |
| 2026-04-14 03:51 | 39.17411 | 117.34115 | 383 ft | 125 kts | 153° |
| 2026-04-14 03:51 | 39.16645 | 117.34650 | 274 ft | 125 kts | 154° |
| 2026-04-14 03:52 | 39.15887 | 117.35158 | 206 ft | 122 kts | 155° |
| 2026-04-14 03:52 | 39.15140 | 117.35628 | 144 ft | 118 kts | 155° |
| 2026-04-14 03:52 | 39.14399 | 117.36092 | 63 ft | 117 kts | 155° |
| 2026-04-14 03:52 | 39.13684 | 117.36529 | 14 ft | 111 kts | 153° |
| 2026-04-14 03:53 | 39.12971 | 117.36998 | 72 ft | 117 kts | 155° |
| 2026-04-14 03:53 | 39.12230 | 117.37474 | 149 ft | 119 kts | 156° |
| 2026-04-14 03:53 | 39.11479 | 117.37940 | 223 ft | 120 kts | 157° |
| 2026-04-14 03:53 | 39.10728 | 117.38412 | 293 ft | 121 kts | 155° |
| 2026-04-14 03:54 | 39.09961 | 117.38870 | 368 ft | 121 kts | 156° |
| 2026-04-14 03:54 | 39.09302 | 117.39523 | 400 ft | 124 kts | 123° |
| 2026-04-14 03:54 | 39.09145 | 117.40586 | 467 ft | 124 kts | 83° |
| 2026-04-14 03:54 | 39.09474 | 117.41629 | 554 ft | 124 kts | 67° |
| 2026-04-14 03:55 | 39.09880 | 117.42595 | 638 ft | 120 kts | 65° |
| 2026-04-14 03:55 | 39.10288 | 117.43527 | 715 ft | 120 kts | 62° |
| 2026-04-14 03:55 | 39.10949 | 117.44170 | 760 ft | 125 kts | 20° |
| 2026-04-14 03:55 | 39.11816 | 117.44124 | 832 ft | 126 kts | 343° |
| 2026-04-14 03:56 | 39.12609 | 117.43647 | 920 ft | 125 kts | 335° |
| 2026-04-14 03:56 | 39.13394 | 117.43147 | 1014 ft | 124 kts | 335° |
| 2026-04-14 03:56 | 39.14160 | 117.42647 | 1099 ft | 123 kts | 335° |
| 2026-04-14 03:56 | 39.14938 | 117.42141 | 1065 ft | 128 kts | 334° |
| 2026-04-14 03:57 | 39.15750 | 117.41628 | 1026 ft | 131 kts | 336° |
| 2026-04-14 03:57 | 39.16582 | 117.41085 | 978 ft | 134 kts | 335° |
| 2026-04-14 03:57 | 39.17415 | 117.40540 | 929 ft | 135 kts | 336° |
| 2026-04-14 03:57 | 39.18229 | 117.39942 | 855 ft | 137 kts | 319° |
| 2026-04-14 03:58 | 39.18670 | 117.38889 | 763 ft | 134 kts | 278° |
| 2026-04-14 03:58 | 39.18541 | 117.37740 | 672 ft | 128 kts | 249° |
| 2026-04-14 03:58 | 39.18203 | 117.36684 | 624 ft | 124 kts | 245° |
| 2026-04-14 03:58 | 39.17853 | 117.35668 | 561 ft | 123 kts | 244° |
| 2026-04-14 03:59 | 39.17180 | 117.35188 | 447 ft | 121 kts | 194° |
| 2026-04-14 03:59 | 39.16487 | 117.35057 | 467 ft | 90 kts | 179° |
| 2026-04-14 03:59 | 39.15895 | 117.35177 | 350 ft | 82 kts | 163° |
| 2026-04-14 03:59 | 39.15397 | 117.35461 | 220 ft | 74 kts | 158° |
| 2026-04-14 04:00 | 39.14956 | 117.35746 | 124 ft | 66 kts | 150° |
| 2026-04-14 04:00 | 39.14565 | 117.36015 | 70 ft | 63 kts | 155° |
| 2026-04-14 04:00 | 39.14170 | 117.36250 | 32 ft | 63 kts | 155° |
| 2026-04-14 04:00 | 39.13794 | 117.36478 | 15 ft | 50 kts | 151° |
| 2026-04-14 04:01 | 39.13492 | 117.36659 | 13 ft | 43 kts | 155° |
| 2026-04-14 04:01 | 39.13244 | 117.36806 | 13 ft | 36 kts | 156° |
| 2026-04-14 04:01 | 39.13033 | 117.36876 | 13 ft | 25 kts | 173° |
| 2026-04-14 04:01 | 39.12942 | 117.36874 | 13 ft | 0 kts | 198° |
| 2026-04-14 04:02 | 39.12904 | 117.36871 | 13 ft | 17 kts | 182° |
| 2026-04-14 04:02 | 39.12757 | 117.36861 | 13 ft | 19 kts | 193° |
| 2026-04-14 04:02 | 39.12700 | 117.36794 | 13 ft | 14 kts | 248° |
| 2026-04-14 04:03 | 39.12663 | 117.36685 | 13 ft | 14 kts | 249° |
| 2026-04-14 04:03 | 39.12605 | 117.36517 | 13 ft | 22 kts | 244° |
| 2026-04-14 04:03 | 39.12546 | 117.36361 | 13 ft | 17 kts | 244° |
| 2026-04-14 04:03 | 39.12500 | 117.36239 | 13 ft | 11 kts | 240° |
| 2026-04-14 04:04 | 39.12462 | 117.36170 | 13 ft | 13 kts | 233° |
| 2026-04-14 04:04 | 39.12449 | 117.36149 | 13 ft | 0 kts | 227° |
| 2026-04-14 04:04 | 39.12434 | 117.36159 | 13 ft | 8 kts | 137° |
| 2026-04-14 04:04 | 39.12403 | 117.36180 | 13 ft | 0 kts | 151° |